Terminal Aerodrome Forecast
Issued by NWS

Home | Current Version | Previous Version | Graphics & Text | Print | Product List | Glossary On
Versions: 1 2 3 4 5 6 7 8 9 10 11 12 13 14 15 16 17
000
FTUS43 KIWX 151605 AAA
TAFSBN
TAF AMD
KSBN 151605Z 1516/1612 24012G19KT 5SM -SHSN BKN020
      TEMPO 1516/1519 1SM -SHSN BKN015
     FM151900 27015G23KT P6SM VCSH OVC025
     FM160000 26012KT 5SM -SHSN OVC025
     FM160500 24007KT P6SM SCT025 BKN035=

USA.gov is the U.S. government's official web portal to all federal, state and local government web resources and services.